<?xml version="1.0" encoding="UTF-8" standalone="no" ?>
<gpx xmlns="http://www.topografix.com/GPX/1/1" xmlns:xsi="http://www.w3.org/2001/XMLSchema-instance" xsi:schemaLocation="http://www.topografix.com/GPX/1/1 http://www.topografix.com/GPX/1/1/gpx.xsd" version="1.1" creator="VisuGPX - https://www.visugpx.com">
  <metadata>
    <name>Rando AN-Ath Vosges 02_08_2016 Monique</name>
    <desc><![CDATA[Les Vosges 2016
Rando du 02/12/2016 guide Monique]]></desc>
  </metadata>
  <trk>
    <name><![CDATA[ACTIVE LOG]]></name>
    <trkseg>
      <trkpt lat="47.78227" lon="7.05822">
        <ele>456.764</ele>
        <time>2016-02-12T08:07:07.000Z</time>
      </trkpt>
      <trkpt lat="47.78232" lon="7.05826">
        <ele>464.454</ele>
        <time>2016-02-12T08:07:16.000Z</time>
      </trkpt>
      <trkpt lat="47.78232" lon="7.05859">
        <ele>456.764</ele>
        <time>2016-02-12T08:07:34.000Z</time>
      </trkpt>
      <trkpt lat="47.78254" lon="7.05881">
        <ele>461.089</ele>
        <time>2016-02-12T08:08:24.000Z</time>
      </trkpt>
      <trkpt lat="47.78243" lon="7.05893">
        <ele>461.089</ele>
        <time>2016-02-12T08:08:47.000Z</time>
      </trkpt>
      <trkpt lat="47.78241" lon="7.05912">
        <ele>461.089</ele>
        <time>2016-02-12T08:09:24.000Z</time>
      </trkpt>
      <trkpt lat="47.78249" lon="7.05921">
        <ele>461.089</ele>
        <time>2016-02-12T08:10:21.000Z</time>
      </trkpt>
      <trkpt lat="47.78241" lon="7.05929">
        <ele>468.299</ele>
        <time>2016-02-12T08:10:38.000Z</time>
      </trkpt>
      <trkpt lat="47.78235" lon="7.05941">
        <ele>468.78</ele>
        <time>2016-02-12T08:10:52.000Z</time>
      </trkpt>
      <trkpt lat="47.78227" lon="7.0597">
        <ele>470.703</ele>
        <time>2016-02-12T08:11:23.000Z</time>
      </trkpt>
      <trkpt lat="47.78218" lon="7.05981">
        <ele>475.029</ele>
        <time>2016-02-12T08:11:44.000Z</time>
      </trkpt>
      <trkpt lat="47.78198" lon="7.05968">
        <ele>475.029</ele>
        <time>2016-02-12T08:12:12.000Z</time>
      </trkpt>
      <trkpt lat="47.7818" lon="7.05979">
        <ele>475.029</ele>
        <time>2016-02-12T08:13:37.000Z</time>
      </trkpt>
      <trkpt lat="47.78107" lon="7.05991">
        <ele>465.416</ele>
        <time>2016-02-12T08:14:42.000Z</time>
      </trkpt>
      <trkpt lat="47.7809" lon="7.05983">
        <ele>464.935</ele>
        <time>2016-02-12T08:14:56.000Z</time>
      </trkpt>
      <trkpt lat="47.78081" lon="7.05964">
        <ele>461.089</ele>
        <time>2016-02-12T08:15:19.000Z</time>
      </trkpt>
      <trkpt lat="47.78078" lon="7.05954">
        <ele>457.244</ele>
        <time>2016-02-12T08:16:01.000Z</time>
      </trkpt>
      <trkpt lat="47.78067" lon="7.05942">
        <ele>456.283</ele>
        <time>2016-02-12T08:16:14.000Z</time>
      </trkpt>
      <trkpt lat="47.78058" lon="7.05935">
        <ele>454.841</ele>
        <time>2016-02-12T08:16:21.000Z</time>
      </trkpt>
      <trkpt lat="47.78031" lon="7.05939">
        <ele>450.034</ele>
        <time>2016-02-12T08:16:42.000Z</time>
      </trkpt>
      <trkpt lat="47.78004" lon="7.05942">
        <ele>446.189</ele>
        <time>2016-02-12T08:17:00.000Z</time>
      </trkpt>
      <trkpt lat="47.77979" lon="7.05946">
        <ele>440.421</ele>
        <time>2016-02-12T08:17:20.000Z</time>
      </trkpt>
      <trkpt lat="47.77935" lon="7.05945">
        <ele>437.537</ele>
        <time>2016-02-12T08:17:51.000Z</time>
      </trkpt>
      <trkpt lat="47.7792" lon="7.05941">
        <ele>433.692</ele>
        <time>2016-02-12T08:18:05.000Z</time>
      </trkpt>
      <trkpt lat="47.77893" lon="7.05914">
        <ele>427.443</ele>
        <time>2016-02-12T08:18:41.000Z</time>
      </trkpt>
      <trkpt lat="47.77879" lon="7.05903">
        <ele>424.079</ele>
        <time>2016-02-12T08:18:59.000Z</time>
      </trkpt>
      <trkpt lat="47.7785" lon="7.05894">
        <ele>419.272</ele>
        <time>2016-02-12T08:19:42.000Z</time>
      </trkpt>
      <trkpt lat="47.77801" lon="7.05862">
        <ele>415.907</ele>
        <time>2016-02-12T08:20:30.000Z</time>
      </trkpt>
      <trkpt lat="47.77755" lon="7.05863">
        <ele>399.084</ele>
        <time>2016-02-12T08:21:41.000Z</time>
      </trkpt>
      <trkpt lat="47.77657" lon="7.05875">
        <ele>389.952</ele>
        <time>2016-02-12T08:23:48.000Z</time>
      </trkpt>
      <trkpt lat="47.77645" lon="7.05863">
        <ele>389.952</ele>
        <time>2016-02-12T08:24:02.000Z</time>
      </trkpt>
      <trkpt lat="47.77639" lon="7.05851">
        <ele>389.952</ele>
        <time>2016-02-12T08:24:17.000Z</time>
      </trkpt>
      <trkpt lat="47.77636" lon="7.05824">
        <ele>391.394</ele>
        <time>2016-02-12T08:25:01.000Z</time>
      </trkpt>
      <trkpt lat="47.77614" lon="7.05809">
        <ele>387.549</ele>
        <time>2016-02-12T08:25:42.000Z</time>
      </trkpt>
      <trkpt lat="47.77612" lon="7.05791">
        <ele>387.549</ele>
        <time>2016-02-12T08:26:11.000Z</time>
      </trkpt>
      <trkpt lat="47.77662" lon="7.05718">
        <ele>388.991</ele>
        <time>2016-02-12T08:28:21.000Z</time>
      </trkpt>
      <trkpt lat="47.77668" lon="7.05699">
        <ele>388.991</ele>
        <time>2016-02-12T08:28:31.000Z</time>
      </trkpt>
      <trkpt lat="47.7767" lon="7.05683">
        <ele>388.991</ele>
        <time>2016-02-12T08:28:44.000Z</time>
      </trkpt>
      <trkpt lat="47.77668" lon="7.0567">
        <ele>389.471</ele>
        <time>2016-02-12T08:29:16.000Z</time>
      </trkpt>
      <trkpt lat="47.77649" lon="7.05631">
        <ele>389.471</ele>
        <time>2016-02-12T08:29:46.000Z</time>
      </trkpt>
      <trkpt lat="47.77638" lon="7.05621">
        <ele>389.471</ele>
        <time>2016-02-12T08:30:03.000Z</time>
      </trkpt>
      <trkpt lat="47.77623" lon="7.05646">
        <ele>396.201</ele>
        <time>2016-02-12T08:30:30.000Z</time>
      </trkpt>
      <trkpt lat="47.77609" lon="7.05647">
        <ele>398.604</ele>
        <time>2016-02-12T08:30:53.000Z</time>
      </trkpt>
      <trkpt lat="47.77587" lon="7.05562">
        <ele>400.526</ele>
        <time>2016-02-12T08:32:48.000Z</time>
      </trkpt>
      <trkpt lat="47.77572" lon="7.05526">
        <ele>401.969</ele>
        <time>2016-02-12T08:33:19.000Z</time>
      </trkpt>
      <trkpt lat="47.77552" lon="7.05497">
        <ele>402.449</ele>
        <time>2016-02-12T08:33:53.000Z</time>
      </trkpt>
      <trkpt lat="47.77541" lon="7.05495">
        <ele>407.736</ele>
        <time>2016-02-12T08:34:29.000Z</time>
      </trkpt>
      <trkpt lat="47.77533" lon="7.05526">
        <ele>408.698</ele>
        <time>2016-02-12T08:34:53.000Z</time>
      </trkpt>
      <trkpt lat="47.77517" lon="7.05538">
        <ele>420.714</ele>
        <time>2016-02-12T08:35:21.000Z</time>
      </trkpt>
      <trkpt lat="47.77498" lon="7.05543">
        <ele>421.675</ele>
        <time>2016-02-12T08:36:19.000Z</time>
      </trkpt>
      <trkpt lat="47.77427" lon="7.05544">
        <ele>422.637</ele>
        <time>2016-02-12T08:37:40.000Z</time>
      </trkpt>
      <trkpt lat="47.77414" lon="7.05521">
        <ele>422.637</ele>
        <time>2016-02-12T08:38:08.000Z</time>
      </trkpt>
      <trkpt lat="47.77407" lon="7.05466">
        <ele>426.001</ele>
        <time>2016-02-12T08:38:51.000Z</time>
      </trkpt>
      <trkpt lat="47.77401" lon="7.05445">
        <ele>429.847</ele>
        <time>2016-02-12T08:39:08.000Z</time>
      </trkpt>
      <trkpt lat="47.77394" lon="7.05429">
        <ele>433.211</ele>
        <time>2016-02-12T08:39:24.000Z</time>
      </trkpt>
      <trkpt lat="47.77381" lon="7.05395">
        <ele>438.499</ele>
        <time>2016-02-12T08:40:00.000Z</time>
      </trkpt>
      <trkpt lat="47.77367" lon="7.05377">
        <ele>442.344</ele>
        <time>2016-02-12T08:40:26.000Z</time>
      </trkpt>
      <trkpt lat="47.77337" lon="7.05358">
        <ele>452.918</ele>
        <time>2016-02-12T08:41:09.000Z</time>
      </trkpt>
      <trkpt lat="47.77304" lon="7.05353">
        <ele>460.609</ele>
        <time>2016-02-12T08:41:44.000Z</time>
      </trkpt>
      <trkpt lat="47.77277" lon="7.05322">
        <ele>460.609</ele>
        <time>2016-02-12T08:42:23.000Z</time>
      </trkpt>
      <trkpt lat="47.77254" lon="7.05276">
        <ele>457.725</ele>
        <time>2016-02-12T08:43:07.000Z</time>
      </trkpt>
      <trkpt lat="47.77259" lon="7.0524">
        <ele>457.725</ele>
        <time>2016-02-12T08:45:08.000Z</time>
      </trkpt>
      <trkpt lat="47.77266" lon="7.05221">
        <ele>464.454</ele>
        <time>2016-02-12T08:45:21.000Z</time>
      </trkpt>
      <trkpt lat="47.77275" lon="7.05203">
        <ele>466.377</ele>
        <time>2016-02-12T08:45:35.000Z</time>
      </trkpt>
      <trkpt lat="47.77282" lon="7.05191">
        <ele>466.377</ele>
        <time>2016-02-12T08:45:57.000Z</time>
      </trkpt>
      <trkpt lat="47.77284" lon="7.05178">
        <ele>466.377</ele>
        <time>2016-02-12T08:46:31.000Z</time>
      </trkpt>
      <trkpt lat="47.77285" lon="7.05153">
        <ele>464.935</ele>
        <time>2016-02-12T08:46:46.000Z</time>
      </trkpt>
      <trkpt lat="47.77282" lon="7.05138">
        <ele>464.454</ele>
        <time>2016-02-12T08:46:56.000Z</time>
      </trkpt>
      <trkpt lat="47.77278" lon="7.0511">
        <ele>457.725</ele>
        <time>2016-02-12T08:47:15.000Z</time>
      </trkpt>
      <trkpt lat="47.77275" lon="7.05092">
        <ele>457.725</ele>
        <time>2016-02-12T08:47:25.000Z</time>
      </trkpt>
      <trkpt lat="47.77263" lon="7.05057">
        <ele>456.283</ele>
        <time>2016-02-12T08:47:48.000Z</time>
      </trkpt>
      <trkpt lat="47.77266" lon="7.05031">
        <ele>456.764</ele>
        <time>2016-02-12T08:48:15.000Z</time>
      </trkpt>
      <trkpt lat="47.7726" lon="7.05011">
        <ele>462.051</ele>
        <time>2016-02-12T08:48:46.000Z</time>
      </trkpt>
      <trkpt lat="47.77252" lon="7.04992">
        <ele>456.283</ele>
        <time>2016-02-12T08:48:57.000Z</time>
      </trkpt>
      <trkpt lat="47.7725" lon="7.04978">
        <ele>456.283</ele>
        <time>2016-02-12T08:49:07.000Z</time>
      </trkpt>
      <trkpt lat="47.77223" lon="7.0486">
        <ele>456.283</ele>
        <time>2016-02-12T08:50:30.000Z</time>
      </trkpt>
      <trkpt lat="47.77197" lon="7.04851">
        <ele>454.841</ele>
        <time>2016-02-12T08:51:28.000Z</time>
      </trkpt>
      <trkpt lat="47.77195" lon="7.04827">
        <ele>454.841</ele>
        <time>2016-02-12T08:52:37.000Z</time>
      </trkpt>
      <trkpt lat="47.77188" lon="7.04803">
        <ele>450.515</ele>
        <time>2016-02-12T08:52:50.000Z</time>
      </trkpt>
      <trkpt lat="47.77192" lon="7.04783">
        <ele>446.67</ele>
        <time>2016-02-12T08:53:04.000Z</time>
      </trkpt>
      <trkpt lat="47.77205" lon="7.04743">
        <ele>445.228</ele>
        <time>2016-02-12T08:53:28.000Z</time>
      </trkpt>
      <trkpt lat="47.77206" lon="7.04729">
        <ele>443.786</ele>
        <time>2016-02-12T08:53:40.000Z</time>
      </trkpt>
      <trkpt lat="47.77162" lon="7.04663">
        <ele>435.615</ele>
        <time>2016-02-12T08:54:36.000Z</time>
      </trkpt>
      <trkpt lat="47.77137" lon="7.04644">
        <ele>433.692</ele>
        <time>2016-02-12T08:55:00.000Z</time>
      </trkpt>
      <trkpt lat="47.77096" lon="7.04552">
        <ele>422.637</ele>
        <time>2016-02-12T08:56:03.000Z</time>
      </trkpt>
      <trkpt lat="47.77074" lon="7.04513">
        <ele>417.83</ele>
        <time>2016-02-12T08:56:36.000Z</time>
      </trkpt>
      <trkpt lat="47.77022" lon="7.04469">
        <ele>416.869</ele>
        <time>2016-02-12T08:57:31.000Z</time>
      </trkpt>
      <trkpt lat="47.76993" lon="7.04427">
        <ele>415.907</ele>
        <time>2016-02-12T08:58:10.000Z</time>
      </trkpt>
      <trkpt lat="47.76972" lon="7.04321">
        <ele>409.659</ele>
        <time>2016-02-12T08:59:12.000Z</time>
      </trkpt>
      <trkpt lat="47.76973" lon="7.043">
        <ele>405.333</ele>
        <time>2016-02-12T08:59:24.000Z</time>
      </trkpt>
      <trkpt lat="47.76971" lon="7.04286">
        <ele>405.333</ele>
        <time>2016-02-12T08:59:37.000Z</time>
      </trkpt>
      <trkpt lat="47.76973" lon="7.04237">
        <ele>405.333</ele>
        <time>2016-02-12T09:00:31.000Z</time>
      </trkpt>
      <trkpt lat="47.7695" lon="7.0422">
        <ele>405.333</ele>
        <time>2016-02-12T09:00:57.000Z</time>
      </trkpt>
      <trkpt lat="47.76919" lon="7.04184">
        <ele>407.256</ele>
        <time>2016-02-12T09:01:42.000Z</time>
      </trkpt>
      <trkpt lat="47.76904" lon="7.04139">
        <ele>407.256</ele>
        <time>2016-02-12T09:02:18.000Z</time>
      </trkpt>
      <trkpt lat="47.7686" lon="7.04089">
        <ele>406.294</ele>
        <time>2016-02-12T09:03:18.000Z</time>
      </trkpt>
      <trkpt lat="47.76842" lon="7.04092">
        <ele>404.852</ele>
        <time>2016-02-12T09:04:20.000Z</time>
      </trkpt>
      <trkpt lat="47.76831" lon="7.04103">
        <ele>404.852</ele>
        <time>2016-02-12T09:04:37.000Z</time>
      </trkpt>
      <trkpt lat="47.76796" lon="7.04121">
        <ele>399.565</ele>
        <time>2016-02-12T09:05:12.000Z</time>
      </trkpt>
      <trkpt lat="47.76777" lon="7.0413">
        <ele>397.162</ele>
        <time>2016-02-12T09:05:44.000Z</time>
      </trkpt>
      <trkpt lat="47.76764" lon="7.04127">
        <ele>396.681</ele>
        <time>2016-02-12T09:06:00.000Z</time>
      </trkpt>
      <trkpt lat="47.76731" lon="7.04075">
        <ele>397.162</ele>
        <time>2016-02-12T09:06:42.000Z</time>
      </trkpt>
      <trkpt lat="47.76662" lon="7.04041">
        <ele>397.162</ele>
        <time>2016-02-12T09:08:02.000Z</time>
      </trkpt>
      <trkpt lat="47.76634" lon="7.0404">
        <ele>397.162</ele>
        <time>2016-02-12T09:08:24.000Z</time>
      </trkpt>
      <trkpt lat="47.76609" lon="7.04039">
        <ele>395.239</ele>
        <time>2016-02-12T09:08:45.000Z</time>
      </trkpt>
      <trkpt lat="47.76528" lon="7.04036">
        <ele>389.471</ele>
        <time>2016-02-12T09:10:08.000Z</time>
      </trkpt>
      <trkpt lat="47.76505" lon="7.04042">
        <ele>389.471</ele>
        <time>2016-02-12T09:10:29.000Z</time>
      </trkpt>
      <trkpt lat="47.76493" lon="7.04052">
        <ele>388.991</ele>
        <time>2016-02-12T09:10:45.000Z</time>
      </trkpt>
      <trkpt lat="47.76478" lon="7.04053">
        <ele>388.51</ele>
        <time>2016-02-12T09:10:57.000Z</time>
      </trkpt>
      <trkpt lat="47.76437" lon="7.04046">
        <ele>390.433</ele>
        <time>2016-02-12T09:11:34.000Z</time>
      </trkpt>
      <trkpt lat="47.76435" lon="7.04049">
        <ele>404.372</ele>
        <time>2016-02-12T09:11:53.000Z</time>
      </trkpt>
      <trkpt lat="47.76424" lon="7.04066">
        <ele>404.372</ele>
        <time>2016-02-12T09:12:04.000Z</time>
      </trkpt>
      <trkpt lat="47.76415" lon="7.04052">
        <ele>399.084</ele>
        <time>2016-02-12T09:12:41.000Z</time>
      </trkpt>
      <trkpt lat="47.76395" lon="7.0406">
        <ele>398.604</ele>
        <time>2016-02-12T09:13:03.000Z</time>
      </trkpt>
      <trkpt lat="47.76376" lon="7.04053">
        <ele>398.123</ele>
        <time>2016-02-12T09:13:16.000Z</time>
      </trkpt>
      <trkpt lat="47.76361" lon="7.04054">
        <ele>393.317</ele>
        <time>2016-02-12T09:13:29.000Z</time>
      </trkpt>
      <trkpt lat="47.76355" lon="7.04063">
        <ele>384.184</ele>
        <time>2016-02-12T09:13:40.000Z</time>
      </trkpt>
      <trkpt lat="47.76336" lon="7.04091">
        <ele>382.742</ele>
        <time>2016-02-12T09:14:02.000Z</time>
      </trkpt>
      <trkpt lat="47.76325" lon="7.04098">
        <ele>377.455</ele>
        <time>2016-02-12T09:14:11.000Z</time>
      </trkpt>
      <trkpt lat="47.763" lon="7.04138">
        <ele>376.494</ele>
        <time>2016-02-12T09:14:45.000Z</time>
      </trkpt>
      <trkpt lat="47.76292" lon="7.04146">
        <ele>376.494</ele>
        <time>2016-02-12T09:14:55.000Z</time>
      </trkpt>
      <trkpt lat="47.76278" lon="7.04154">
        <ele>376.494</ele>
        <time>2016-02-12T09:15:07.000Z</time>
      </trkpt>
      <trkpt lat="47.76264" lon="7.04156">
        <ele>376.974</ele>
        <time>2016-02-12T09:15:21.000Z</time>
      </trkpt>
      <trkpt lat="47.76257" lon="7.04166">
        <ele>376.974</ele>
        <time>2016-02-12T09:15:41.000Z</time>
      </trkpt>
      <trkpt lat="47.76211" lon="7.04202">
        <ele>376.974</ele>
        <time>2016-02-12T09:16:29.000Z</time>
      </trkpt>
      <trkpt lat="47.76197" lon="7.04222">
        <ele>374.571</ele>
        <time>2016-02-12T09:17:12.000Z</time>
      </trkpt>
      <trkpt lat="47.76159" lon="7.04242">
        <ele>374.09</ele>
        <time>2016-02-12T09:18:39.000Z</time>
      </trkpt>
      <trkpt lat="47.76146" lon="7.04254">
        <ele>373.129</ele>
        <time>2016-02-12T09:20:28.000Z</time>
      </trkpt>
      <trkpt lat="47.76138" lon="7.04275">
        <ele>371.687</ele>
        <time>2016-02-12T09:20:40.000Z</time>
      </trkpt>
      <trkpt lat="47.76121" lon="7.04308">
        <ele>370.726</ele>
        <time>2016-02-12T09:21:04.000Z</time>
      </trkpt>
      <trkpt lat="47.76072" lon="7.04515">
        <ele>370.726</ele>
        <time>2016-02-12T09:23:13.000Z</time>
      </trkpt>
      <trkpt lat="47.76072" lon="7.0457">
        <ele>367.842</ele>
        <time>2016-02-12T09:23:47.000Z</time>
      </trkpt>
      <trkpt lat="47.76056" lon="7.04636">
        <ele>366.88</ele>
        <time>2016-02-12T09:24:29.000Z</time>
      </trkpt>
      <trkpt lat="47.76057" lon="7.04726">
        <ele>364.958</ele>
        <time>2016-02-12T09:25:49.000Z</time>
      </trkpt>
      <trkpt lat="47.76038" lon="7.04832">
        <ele>362.554</ele>
        <time>2016-02-12T09:26:50.000Z</time>
      </trkpt>
      <trkpt lat="47.76041" lon="7.04856">
        <ele>362.554</ele>
        <time>2016-02-12T09:27:02.000Z</time>
      </trkpt>
      <trkpt lat="47.76032" lon="7.04965">
        <ele>363.996</ele>
        <time>2016-02-12T09:28:06.000Z</time>
      </trkpt>
      <trkpt lat="47.76028" lon="7.04982">
        <ele>363.996</ele>
        <time>2016-02-12T09:28:19.000Z</time>
      </trkpt>
      <trkpt lat="47.76022" lon="7.04992">
        <ele>363.996</ele>
        <time>2016-02-12T09:29:22.000Z</time>
      </trkpt>
      <trkpt lat="47.75766" lon="7.05049">
        <ele>363.516</ele>
        <time>2016-02-12T09:35:00.000Z</time>
      </trkpt>
      <trkpt lat="47.75717" lon="7.05199">
        <ele>361.593</ele>
        <time>2016-02-12T09:36:58.000Z</time>
      </trkpt>
      <trkpt lat="47.75708" lon="7.0521">
        <ele>361.593</ele>
        <time>2016-02-12T09:37:11.000Z</time>
      </trkpt>
      <trkpt lat="47.75615" lon="7.05205">
        <ele>362.554</ele>
        <time>2016-02-12T09:38:31.000Z</time>
      </trkpt>
      <trkpt lat="47.75606" lon="7.05198">
        <ele>362.554</ele>
        <time>2016-02-12T09:38:45.000Z</time>
      </trkpt>
      <trkpt lat="47.75616" lon="7.05051">
        <ele>362.554</ele>
        <time>2016-02-12T09:40:39.000Z</time>
      </trkpt>
      <trkpt lat="47.75624" lon="7.05042">
        <ele>362.554</ele>
        <time>2016-02-12T10:11:38.000Z</time>
      </trkpt>
      <trkpt lat="47.75614" lon="7.05042">
        <ele>362.554</ele>
        <time>2016-02-12T10:12:09.000Z</time>
      </trkpt>
      <trkpt lat="47.75637" lon="7.04949">
        <ele>363.516</ele>
        <time>2016-02-12T10:15:11.000Z</time>
      </trkpt>
      <trkpt lat="47.75673" lon="7.04984">
        <ele>363.035</ele>
        <time>2016-02-12T10:15:53.000Z</time>
      </trkpt>
      <trkpt lat="47.75696" lon="7.05004">
        <ele>360.632</ele>
        <time>2016-02-12T10:16:18.000Z</time>
      </trkpt>
      <trkpt lat="47.75748" lon="7.05041">
        <ele>359.67</ele>
        <time>2016-02-12T10:17:13.000Z</time>
      </trkpt>
      <trkpt lat="47.75801" lon="7.05041">
        <ele>358.228</ele>
        <time>2016-02-12T10:18:07.000Z</time>
      </trkpt>
      <trkpt lat="47.75874" lon="7.05009">
        <ele>358.228</ele>
        <time>2016-02-12T10:19:14.000Z</time>
      </trkpt>
      <trkpt lat="47.75991" lon="7.04997">
        <ele>359.19</ele>
        <time>2016-02-12T10:21:13.000Z</time>
      </trkpt>
      <trkpt lat="47.75997" lon="7.05011">
        <ele>360.151</ele>
        <time>2016-02-12T10:21:29.000Z</time>
      </trkpt>
      <trkpt lat="47.75982" lon="7.05223">
        <ele>360.151</ele>
        <time>2016-02-12T10:23:34.000Z</time>
      </trkpt>
      <trkpt lat="47.75993" lon="7.05297">
        <ele>360.632</ele>
        <time>2016-02-12T10:24:20.000Z</time>
      </trkpt>
      <trkpt lat="47.75991" lon="7.05313">
        <ele>360.632</ele>
        <time>2016-02-12T10:24:30.000Z</time>
      </trkpt>
      <trkpt lat="47.75993" lon="7.05353">
        <ele>369.284</ele>
        <time>2016-02-12T10:26:03.000Z</time>
      </trkpt>
      <trkpt lat="47.75997" lon="7.05379">
        <ele>377.455</ele>
        <time>2016-02-12T10:26:15.000Z</time>
      </trkpt>
      <trkpt lat="47.76" lon="7.05396">
        <ele>377.455</ele>
        <time>2016-02-12T10:26:28.000Z</time>
      </trkpt>
      <trkpt lat="47.76005" lon="7.05408">
        <ele>377.455</ele>
        <time>2016-02-12T10:26:39.000Z</time>
      </trkpt>
      <trkpt lat="47.76005" lon="7.05423">
        <ele>376.013</ele>
        <time>2016-02-12T10:26:48.000Z</time>
      </trkpt>
      <trkpt lat="47.76009" lon="7.05446">
        <ele>374.09</ele>
        <time>2016-02-12T10:27:03.000Z</time>
      </trkpt>
      <trkpt lat="47.76007" lon="7.05475">
        <ele>369.764</ele>
        <time>2016-02-12T10:27:18.000Z</time>
      </trkpt>
      <trkpt lat="47.76015" lon="7.05489">
        <ele>369.284</ele>
        <time>2016-02-12T10:27:33.000Z</time>
      </trkpt>
      <trkpt lat="47.76067" lon="7.05516">
        <ele>369.284</ele>
        <time>2016-02-12T10:29:33.000Z</time>
      </trkpt>
      <trkpt lat="47.7611" lon="7.05522">
        <ele>371.687</ele>
        <time>2016-02-12T10:30:17.000Z</time>
      </trkpt>
      <trkpt lat="47.7614" lon="7.05511">
        <ele>376.013</ele>
        <time>2016-02-12T10:30:46.000Z</time>
      </trkpt>
      <trkpt lat="47.76173" lon="7.05512">
        <ele>388.991</ele>
        <time>2016-02-12T10:31:24.000Z</time>
      </trkpt>
      <trkpt lat="47.76183" lon="7.05503">
        <ele>388.991</ele>
        <time>2016-02-12T10:31:36.000Z</time>
      </trkpt>
      <trkpt lat="47.76202" lon="7.05489">
        <ele>395.239</ele>
        <time>2016-02-12T10:31:59.000Z</time>
      </trkpt>
      <trkpt lat="47.76202" lon="7.05473">
        <ele>402.449</ele>
        <time>2016-02-12T10:32:31.000Z</time>
      </trkpt>
      <trkpt lat="47.76242" lon="7.05457">
        <ele>398.123</ele>
        <time>2016-02-12T10:33:27.000Z</time>
      </trkpt>
      <trkpt lat="47.76268" lon="7.05449">
        <ele>396.681</ele>
        <time>2016-02-12T10:33:51.000Z</time>
      </trkpt>
      <trkpt lat="47.76281" lon="7.05465">
        <ele>396.681</ele>
        <time>2016-02-12T10:34:09.000Z</time>
      </trkpt>
      <trkpt lat="47.76281" lon="7.05481">
        <ele>396.681</ele>
        <time>2016-02-12T10:34:17.000Z</time>
      </trkpt>
      <trkpt lat="47.76269" lon="7.05493">
        <ele>398.123</ele>
        <time>2016-02-12T10:34:27.000Z</time>
      </trkpt>
      <trkpt lat="47.76239" lon="7.05503">
        <ele>400.526</ele>
        <time>2016-02-12T10:35:04.000Z</time>
      </trkpt>
      <trkpt lat="47.7623" lon="7.05517">
        <ele>406.775</ele>
        <time>2016-02-12T10:35:18.000Z</time>
      </trkpt>
      <trkpt lat="47.76218" lon="7.05538">
        <ele>402.93</ele>
        <time>2016-02-12T10:35:40.000Z</time>
      </trkpt>
      <trkpt lat="47.76208" lon="7.05548">
        <ele>406.775</ele>
        <time>2016-02-12T10:35:51.000Z</time>
      </trkpt>
      <trkpt lat="47.76197" lon="7.05572">
        <ele>406.775</ele>
        <time>2016-02-12T10:36:14.000Z</time>
      </trkpt>
      <trkpt lat="47.76164" lon="7.05608">
        <ele>408.698</ele>
        <time>2016-02-12T10:37:01.000Z</time>
      </trkpt>
      <trkpt lat="47.76143" lon="7.0562">
        <ele>409.659</ele>
        <time>2016-02-12T10:37:32.000Z</time>
      </trkpt>
      <trkpt lat="47.76136" lon="7.05639">
        <ele>409.659</ele>
        <time>2016-02-12T10:37:52.000Z</time>
      </trkpt>
      <trkpt lat="47.76122" lon="7.05654">
        <ele>411.582</ele>
        <time>2016-02-12T10:38:07.000Z</time>
      </trkpt>
      <trkpt lat="47.76092" lon="7.05663">
        <ele>412.543</ele>
        <time>2016-02-12T10:38:55.000Z</time>
      </trkpt>
      <trkpt lat="47.76085" lon="7.05673">
        <ele>413.024</ele>
        <time>2016-02-12T10:39:08.000Z</time>
      </trkpt>
      <trkpt lat="47.7608" lon="7.05693">
        <ele>418.792</ele>
        <time>2016-02-12T10:39:21.000Z</time>
      </trkpt>
      <trkpt lat="47.76081" lon="7.05707">
        <ele>418.792</ele>
        <time>2016-02-12T10:39:32.000Z</time>
      </trkpt>
      <trkpt lat="47.7608" lon="7.05728">
        <ele>418.792</ele>
        <time>2016-02-12T10:39:46.000Z</time>
      </trkpt>
      <trkpt lat="47.76093" lon="7.05744">
        <ele>420.714</ele>
        <time>2016-02-12T10:41:34.000Z</time>
      </trkpt>
      <trkpt lat="47.76098" lon="7.05757">
        <ele>419.272</ele>
        <time>2016-02-12T10:41:47.000Z</time>
      </trkpt>
      <trkpt lat="47.761" lon="7.05805">
        <ele>419.272</ele>
        <time>2016-02-12T10:42:27.000Z</time>
      </trkpt>
      <trkpt lat="47.76239" lon="7.05793">
        <ele>423.598</ele>
        <time>2016-02-12T10:45:30.000Z</time>
      </trkpt>
      <trkpt lat="47.76254" lon="7.05781">
        <ele>423.598</ele>
        <time>2016-02-12T10:45:45.000Z</time>
      </trkpt>
      <trkpt lat="47.76324" lon="7.05764">
        <ele>425.04</ele>
        <time>2016-02-12T10:46:57.000Z</time>
      </trkpt>
      <trkpt lat="47.76384" lon="7.05731">
        <ele>425.04</ele>
        <time>2016-02-12T10:48:41.000Z</time>
      </trkpt>
      <trkpt lat="47.76399" lon="7.05731">
        <ele>425.04</ele>
        <time>2016-02-12T10:48:59.000Z</time>
      </trkpt>
      <trkpt lat="47.7641" lon="7.05749">
        <ele>425.04</ele>
        <time>2016-02-12T10:49:20.000Z</time>
      </trkpt>
      <trkpt lat="47.76419" lon="7.05776">
        <ele>427.924</ele>
        <time>2016-02-12T10:49:45.000Z</time>
      </trkpt>
      <trkpt lat="47.7643" lon="7.0579">
        <ele>425.521</ele>
        <time>2016-02-12T10:49:57.000Z</time>
      </trkpt>
      <trkpt lat="47.76435" lon="7.05815">
        <ele>428.405</ele>
        <time>2016-02-12T10:50:20.000Z</time>
      </trkpt>
      <trkpt lat="47.76452" lon="7.05809">
        <ele>430.808</ele>
        <time>2016-02-12T10:50:42.000Z</time>
      </trkpt>
      <trkpt lat="47.76468" lon="7.05808">
        <ele>428.405</ele>
        <time>2016-02-12T10:51:03.000Z</time>
      </trkpt>
      <trkpt lat="47.76485" lon="7.05824">
        <ele>430.808</ele>
        <time>2016-02-12T10:51:28.000Z</time>
      </trkpt>
      <trkpt lat="47.76516" lon="7.05896">
        <ele>435.134</ele>
        <time>2016-02-12T10:55:53.000Z</time>
      </trkpt>
      <trkpt lat="47.76523" lon="7.05918">
        <ele>436.095</ele>
        <time>2016-02-12T10:56:05.000Z</time>
      </trkpt>
      <trkpt lat="47.7652" lon="7.05937">
        <ele>436.095</ele>
        <time>2016-02-12T10:56:14.000Z</time>
      </trkpt>
      <trkpt lat="47.76524" lon="7.05957">
        <ele>435.134</ele>
        <time>2016-02-12T10:56:25.000Z</time>
      </trkpt>
      <trkpt lat="47.76538" lon="7.05991">
        <ele>429.366</ele>
        <time>2016-02-12T10:56:49.000Z</time>
      </trkpt>
      <trkpt lat="47.7654" lon="7.06007">
        <ele>422.156</ele>
        <time>2016-02-12T10:57:00.000Z</time>
      </trkpt>
      <trkpt lat="47.76548" lon="7.06034">
        <ele>422.156</ele>
        <time>2016-02-12T10:57:19.000Z</time>
      </trkpt>
      <trkpt lat="47.76547" lon="7.06053">
        <ele>422.156</ele>
        <time>2016-02-12T10:57:30.000Z</time>
      </trkpt>
      <trkpt lat="47.76545" lon="7.06067">
        <ele>417.83</ele>
        <time>2016-02-12T10:57:41.000Z</time>
      </trkpt>
      <trkpt lat="47.76534" lon="7.06088">
        <ele>417.83</ele>
        <time>2016-02-12T10:57:53.000Z</time>
      </trkpt>
      <trkpt lat="47.76527" lon="7.06121">
        <ele>416.388</ele>
        <time>2016-02-12T10:58:18.000Z</time>
      </trkpt>
      <trkpt lat="47.7653" lon="7.06138">
        <ele>413.504</ele>
        <time>2016-02-12T10:58:36.000Z</time>
      </trkpt>
      <trkpt lat="47.7654" lon="7.06154">
        <ele>413.024</ele>
        <time>2016-02-12T10:59:01.000Z</time>
      </trkpt>
      <trkpt lat="47.76556" lon="7.06166">
        <ele>409.659</ele>
        <time>2016-02-12T10:59:21.000Z</time>
      </trkpt>
      <trkpt lat="47.766" lon="7.06204">
        <ele>407.256</ele>
        <time>2016-02-12T11:00:23.000Z</time>
      </trkpt>
      <trkpt lat="47.76625" lon="7.06211">
        <ele>397.642</ele>
        <time>2016-02-12T11:01:12.000Z</time>
      </trkpt>
      <trkpt lat="47.76632" lon="7.0621">
        <ele>386.107</ele>
        <time>2016-02-12T11:01:26.000Z</time>
      </trkpt>
      <trkpt lat="47.76671" lon="7.06192">
        <ele>379.377</ele>
        <time>2016-02-12T11:02:23.000Z</time>
      </trkpt>
      <trkpt lat="47.76698" lon="7.06203">
        <ele>370.726</ele>
        <time>2016-02-12T11:03:01.000Z</time>
      </trkpt>
      <trkpt lat="47.76704" lon="7.06224">
        <ele>370.245</ele>
        <time>2016-02-12T11:03:15.000Z</time>
      </trkpt>
      <trkpt lat="47.76714" lon="7.06244">
        <ele>369.764</ele>
        <time>2016-02-12T11:03:30.000Z</time>
      </trkpt>
      <trkpt lat="47.76754" lon="7.06402">
        <ele>366.4</ele>
        <time>2016-02-12T11:05:20.000Z</time>
      </trkpt>
      <trkpt lat="47.76728" lon="7.06432">
        <ele>363.035</ele>
        <time>2016-02-12T11:06:46.000Z</time>
      </trkpt>
      <trkpt lat="47.76722" lon="7.0645">
        <ele>363.035</ele>
        <time>2016-02-12T11:06:58.000Z</time>
      </trkpt>
      <trkpt lat="47.76693" lon="7.06472">
        <ele>366.4</ele>
        <time>2016-02-12T11:07:29.000Z</time>
      </trkpt>
      <trkpt lat="47.76705" lon="7.06489">
        <ele>376.494</ele>
        <time>2016-02-12T11:07:48.000Z</time>
      </trkpt>
      <trkpt lat="47.76708" lon="7.06502">
        <ele>376.494</ele>
        <time>2016-02-12T11:07:59.000Z</time>
      </trkpt>
      <trkpt lat="47.76709" lon="7.06517">
        <ele>376.974</ele>
        <time>2016-02-12T11:08:11.000Z</time>
      </trkpt>
      <trkpt lat="47.76698" lon="7.06541">
        <ele>377.455</ele>
        <time>2016-02-12T11:08:35.000Z</time>
      </trkpt>
      <trkpt lat="47.76702" lon="7.06553">
        <ele>377.455</ele>
        <time>2016-02-12T11:08:55.000Z</time>
      </trkpt>
      <trkpt lat="47.76696" lon="7.06589">
        <ele>376.974</ele>
        <time>2016-02-12T11:10:14.000Z</time>
      </trkpt>
      <trkpt lat="47.76722" lon="7.06594">
        <ele>377.455</ele>
        <time>2016-02-12T11:10:49.000Z</time>
      </trkpt>
      <trkpt lat="47.7673" lon="7.06602">
        <ele>380.819</ele>
        <time>2016-02-12T11:11:02.000Z</time>
      </trkpt>
      <trkpt lat="47.76748" lon="7.06604">
        <ele>391.875</ele>
        <time>2016-02-12T11:11:25.000Z</time>
      </trkpt>
      <trkpt lat="47.76769" lon="7.06606">
        <ele>400.526</ele>
        <time>2016-02-12T11:11:51.000Z</time>
      </trkpt>
      <trkpt lat="47.76776" lon="7.06617">
        <ele>401.007</ele>
        <time>2016-02-12T11:12:04.000Z</time>
      </trkpt>
      <trkpt lat="47.76789" lon="7.06631">
        <ele>402.449</ele>
        <time>2016-02-12T11:12:26.000Z</time>
      </trkpt>
      <trkpt lat="47.76801" lon="7.06651">
        <ele>402.449</ele>
        <time>2016-02-12T11:12:50.000Z</time>
      </trkpt>
      <trkpt lat="47.76804" lon="7.06664">
        <ele>406.294</ele>
        <time>2016-02-12T11:13:01.000Z</time>
      </trkpt>
      <trkpt lat="47.7681" lon="7.06675">
        <ele>406.294</ele>
        <time>2016-02-12T11:13:14.000Z</time>
      </trkpt>
      <trkpt lat="47.76831" lon="7.06683">
        <ele>406.294</ele>
        <time>2016-02-12T11:13:47.000Z</time>
      </trkpt>
      <trkpt lat="47.76839" lon="7.067">
        <ele>408.217</ele>
        <time>2016-02-12T11:14:09.000Z</time>
      </trkpt>
      <trkpt lat="47.76846" lon="7.0674">
        <ele>413.024</ele>
        <time>2016-02-12T11:14:49.000Z</time>
      </trkpt>
      <trkpt lat="47.76845" lon="7.06772">
        <ele>413.024</ele>
        <time>2016-02-12T11:15:20.000Z</time>
      </trkpt>
      <trkpt lat="47.76834" lon="7.06789">
        <ele>418.311</ele>
        <time>2016-02-12T11:15:35.000Z</time>
      </trkpt>
      <trkpt lat="47.76835" lon="7.06808">
        <ele>418.311</ele>
        <time>2016-02-12T11:16:10.000Z</time>
      </trkpt>
      <trkpt lat="47.76842" lon="7.06823">
        <ele>417.35</ele>
        <time>2016-02-12T11:16:32.000Z</time>
      </trkpt>
      <trkpt lat="47.76843" lon="7.0685">
        <ele>417.35</ele>
        <time>2016-02-12T11:17:09.000Z</time>
      </trkpt>
      <trkpt lat="47.76858" lon="7.06869">
        <ele>415.427</ele>
        <time>2016-02-12T11:19:13.000Z</time>
      </trkpt>
      <trkpt lat="47.76865" lon="7.06885">
        <ele>415.427</ele>
        <time>2016-02-12T11:19:27.000Z</time>
      </trkpt>
      <trkpt lat="47.76876" lon="7.06898">
        <ele>415.427</ele>
        <time>2016-02-12T11:19:42.000Z</time>
      </trkpt>
      <trkpt lat="47.76889" lon="7.06905">
        <ele>415.427</ele>
        <time>2016-02-12T11:19:56.000Z</time>
      </trkpt>
      <trkpt lat="47.76908" lon="7.06906">
        <ele>417.83</ele>
        <time>2016-02-12T11:20:11.000Z</time>
      </trkpt>
      <trkpt lat="47.77189" lon="7.06682">
        <ele>422.637</ele>
        <time>2016-02-12T11:25:10.000Z</time>
      </trkpt>
      <trkpt lat="47.77234" lon="7.06625">
        <ele>426.001</ele>
        <time>2016-02-12T11:26:13.000Z</time>
      </trkpt>
      <trkpt lat="47.77294" lon="7.06564">
        <ele>427.924</ele>
        <time>2016-02-12T11:27:23.000Z</time>
      </trkpt>
      <trkpt lat="47.7737" lon="7.0653">
        <ele>434.173</ele>
        <time>2016-02-12T11:28:41.000Z</time>
      </trkpt>
      <trkpt lat="47.77448" lon="7.06501">
        <ele>437.057</ele>
        <time>2016-02-12T11:30:07.000Z</time>
      </trkpt>
      <trkpt lat="47.77442" lon="7.06473">
        <ele>432.731</ele>
        <time>2016-02-12T11:30:39.000Z</time>
      </trkpt>
      <trkpt lat="47.77439" lon="7.06452">
        <ele>427.443</ele>
        <time>2016-02-12T11:30:54.000Z</time>
      </trkpt>
      <trkpt lat="47.77441" lon="7.06414">
        <ele>421.195</ele>
        <time>2016-02-12T11:31:21.000Z</time>
      </trkpt>
      <trkpt lat="47.77441" lon="7.06385">
        <ele>417.83</ele>
        <time>2016-02-12T11:31:48.000Z</time>
      </trkpt>
      <trkpt lat="47.77441" lon="7.0637">
        <ele>415.907</ele>
        <time>2016-02-12T11:32:00.000Z</time>
      </trkpt>
      <trkpt lat="47.77428" lon="7.06313">
        <ele>415.427</ele>
        <time>2016-02-12T11:32:45.000Z</time>
      </trkpt>
      <trkpt lat="47.7743" lon="7.06295">
        <ele>415.427</ele>
        <time>2016-02-12T11:32:58.000Z</time>
      </trkpt>
      <trkpt lat="47.77428" lon="7.06279">
        <ele>415.427</ele>
        <time>2016-02-12T11:33:13.000Z</time>
      </trkpt>
      <trkpt lat="47.77432" lon="7.06264">
        <ele>415.427</ele>
        <time>2016-02-12T11:33:27.000Z</time>
      </trkpt>
      <trkpt lat="47.77438" lon="7.06251">
        <ele>416.388</ele>
        <time>2016-02-12T11:33:40.000Z</time>
      </trkpt>
      <trkpt lat="47.77452" lon="7.06234">
        <ele>423.598</ele>
        <time>2016-02-12T11:35:08.000Z</time>
      </trkpt>
      <trkpt lat="47.77493" lon="7.06226">
        <ele>426.482</ele>
        <time>2016-02-12T11:36:04.000Z</time>
      </trkpt>
      <trkpt lat="47.77522" lon="7.06221">
        <ele>428.885</ele>
        <time>2016-02-12T11:36:37.000Z</time>
      </trkpt>
      <trkpt lat="47.7756" lon="7.06161">
        <ele>437.537</ele>
        <time>2016-02-12T11:37:38.000Z</time>
      </trkpt>
      <trkpt lat="47.77615" lon="7.06163">
        <ele>437.537</ele>
        <time>2016-02-12T11:38:58.000Z</time>
      </trkpt>
      <trkpt lat="47.77645" lon="7.06142">
        <ele>439.46</ele>
        <time>2016-02-12T11:39:40.000Z</time>
      </trkpt>
      <trkpt lat="47.77682" lon="7.0608">
        <ele>442.824</ele>
        <time>2016-02-12T11:40:43.000Z</time>
      </trkpt>
      <trkpt lat="47.7778" lon="7.06013">
        <ele>447.15</ele>
        <time>2016-02-12T11:42:51.000Z</time>
      </trkpt>
      <trkpt lat="47.77789" lon="7.05996">
        <ele>448.592</ele>
        <time>2016-02-12T11:43:05.000Z</time>
      </trkpt>
      <trkpt lat="47.77838" lon="7.05961">
        <ele>448.592</ele>
        <time>2016-02-12T11:44:03.000Z</time>
      </trkpt>
      <trkpt lat="47.77895" lon="7.05937">
        <ele>450.034</ele>
        <time>2016-02-12T11:45:07.000Z</time>
      </trkpt>
      <trkpt lat="47.77969" lon="7.05937">
        <ele>453.88</ele>
        <time>2016-02-12T11:46:48.000Z</time>
      </trkpt>
      <trkpt lat="47.78005" lon="7.05933">
        <ele>455.322</ele>
        <time>2016-02-12T11:47:31.000Z</time>
      </trkpt>
      <trkpt lat="47.78013" lon="7.05938">
        <ele>458.206</ele>
        <time>2016-02-12T11:48:16.000Z</time>
      </trkpt>
      <trkpt lat="47.78044" lon="7.05931">
        <ele>458.206</ele>
        <time>2016-02-12T11:49:09.000Z</time>
      </trkpt>
      <trkpt lat="47.78078" lon="7.0592">
        <ele>456.764</ele>
        <time>2016-02-12T11:50:00.000Z</time>
      </trkpt>
      <trkpt lat="47.78112" lon="7.0591">
        <ele>456.764</ele>
        <time>2016-02-12T11:50:51.000Z</time>
      </trkpt>
      <trkpt lat="47.78136" lon="7.05903">
        <ele>443.786</ele>
        <time>2016-02-12T11:51:22.000Z</time>
      </trkpt>
      <trkpt lat="47.78148" lon="7.0588">
        <ele>438.018</ele>
        <time>2016-02-12T11:52:30.000Z</time>
      </trkpt>
      <trkpt lat="47.78138" lon="7.05877">
        <ele>438.018</ele>
        <time>2016-02-12T11:52:53.000Z</time>
      </trkpt>
      <trkpt lat="47.78141" lon="7.05859">
        <ele>438.018</ele>
        <time>2016-02-12T11:53:07.000Z</time>
      </trkpt>
      <trkpt lat="47.78158" lon="7.05839">
        <ele>438.018</ele>
        <time>2016-02-12T11:53:51.000Z</time>
      </trkpt>
      <trkpt lat="47.78192" lon="7.05815">
        <ele>433.211</ele>
        <time>2016-02-12T11:54:44.000Z</time>
      </trkpt>
      <trkpt lat="47.78204" lon="7.05827">
        <ele>433.211</ele>
        <time>2016-02-12T11:57:39.000Z</time>
      </trkpt>
      <trkpt lat="47.78218" lon="7.05811">
        <ele>455.802</ele>
        <time>2016-02-12T11:58:27.000Z</time>
      </trkpt>
    </trkseg>
  </trk>
</gpx>